sensor_id;sensor_type;location;lat;lon;timestamp;pressure;altitude;pressure_sealevel;temperature;humidity
77574;BME280;66710;48.868;9.080;2023-02-28T00:01:07;98737.38;;;-2.95;61.07
77574;BME280;66710;48.868;9.080;2023-02-28T00:03:32;98734.72;;;-2.87;61.34
77574;BME280;66710;48.868;9.080;2023-02-28T00:06:03;98742.22;;;-2.90;61.01
77574;BME280;66710;48.868;9.080;2023-02-28T00:08:29;98744.22;;;-2.92;61.44
77574;BME280;66710;48.868;9.080;2023-02-28T00:10:55;98734.22;;;-2.90;61.67
77574;BME280;66710;48.868;9.080;2023-02-28T00:13:20;98732.25;;;-2.96;62.22
77574;BME280;66710;48.868;9.080;2023-02-28T00:15:45;98737.38;;;-2.95;62.24
77574;BME280;66710;48.868;9.080;2023-02-28T00:18:11;98731.22;;;-2.95;62.87
77574;BME280;66710;48.868;9.080;2023-02-28T00:20:37;98727.06;;;-2.98;62.64
77574;BME280;66710;48.868;9.080;2023-02-28T00:23:02;98730.88;;;-3.00;63.17
77574;BME280;66710;48.868;9.080;2023-02-28T00:25:28;98735.56;;;-3.02;63.36
77574;BME280;66710;48.868;9.080;2023-02-28T00:27:53;98732.91;;;-3.02;63.63
77574;BME280;66710;48.868;9.080;2023-02-28T00:30:20;98732.06;;;-3.03;64.03
77574;BME280;66710;48.868;9.080;2023-02-28T00:32:46;98731.56;;;-3.07;64.50
77574;BME280;66710;48.868;9.080;2023-02-28T00:35:12;98729.91;;;-3.08;64.71
77574;BME280;66710;48.868;9.080;2023-02-28T00:37:38;98722.56;;;-3.06;64.75
77574;BME280;66710;48.868;9.080;2023-02-28T00:40:04;98725.06;;;-3.04;64.99
77574;BME280;66710;48.868;9.080;2023-02-28T00:42:33;98724.56;;;-3.08;64.88
77574;BME280;66710;48.868;9.080;2023-02-28T00:44:58;98724.56;;;-3.08;65.10
77574;BME280;66710;48.868;9.080;2023-02-28T00:47:23;98733.75;;;-3.10;65.83
77574;BME280;66710;48.868;9.080;2023-02-28T00:49:49;98729.25;;;-3.10;65.75
77574;BME280;66710;48.868;9.080;2023-02-28T00:52:14;98718.56;;;-3.10;65.89
77574;BME280;66710;48.868;9.080;2023-02-28T00:54:39;98718.09;;;-3.13;66.42
77574;BME280;66710;48.868;9.080;2023-02-28T00:57:05;98725.75;;;-3.18;66.98
77574;BME280;66710;48.868;9.080;2023-02-28T00:59:30;98722.09;;;-3.17;66.81
77574;BME280;66710;48.868;9.080;2023-02-28T01:01:55;98720.09;;;-3.15;66.60
77574;BME280;66710;48.868;9.080;2023-02-28T01:04:21;98719.44;;;-3.17;67.18
77574;BME280;66710;48.868;9.080;2023-02-28T01:06:46;98724.75;;;-3.17;67.38
77574;BME280;66710;48.868;9.080;2023-02-28T01:09:12;98719.25;;;-3.08;67.25
77574;BME280;66710;48.868;9.080;2023-02-28T01:11:37;98726.25;;;-3.15;67.46
77574;BME280;66710;48.868;9.080;2023-02-28T01:14:03;98715.25;;;-3.20;67.93
77574;BME280;66710;48.868;9.080;2023-02-28T01:16:29;98725.91;;;-3.20;67.70
77574;BME280;66710;48.868;9.080;2023-02-28T01:18:55;98717.41;;;-3.24;67.75
77574;BME280;66710;48.868;9.080;2023-02-28T01:21:21;98716.75;;;-3.26;68.10
77574;BME280;66710;48.868;9.080;2023-02-28T01:23:47;98715.06;;;-3.27;68.67
77574;BME280;66710;48.868;9.080;2023-02-28T01:26:20;98707.94;;;-3.26;68.95
77574;BME280;66710;48.868;9.080;2023-02-28T01:28:47;98710.59;;;-3.26;68.83
77574;BME280;66710;48.868;9.080;2023-02-28T01:31:13;98714.59;;;-3.22;68.89
77574;BME280;66710;48.868;9.080;2023-02-28T01:33:39;98715.56;;;-3.23;68.40
77574;BME280;66710;48.868;9.080;2023-02-28T01:36:08;98717.56;;;-3.25;68.97
77574;BME280;66710;48.868;9.080;2023-02-28T01:38:34;98711.41;;;-3.26;69.46
77574;BME280;66710;48.868;9.080;2023-02-28T01:41:00;98718.91;;;-3.29;69.70
77574;BME280;66710;48.868;9.080;2023-02-28T01:43:27;98713.25;;;-3.34;69.69
77574;BME280;66710;48.868;9.080;2023-02-28T01:45:54;98713.75;;;-3.31;70.01
77574;BME280;66710;48.868;9.080;2023-02-28T01:48:26;98716.22;;;-3.37;70.08
77574;BME280;66710;48.868;9.080;2023-02-28T01:50:54;98716.41;;;-3.39;70.27
77574;BME280;66710;48.868;9.080;2023-02-28T01:53:25;98717.75;;;-3.35;70.24
77574;BME280;66710;48.868;9.080;2023-02-28T01:55:53;98711.41;;;-3.34;70.52
77574;BME280;66710;48.868;9.080;2023-02-28T01:58:19;98709.09;;;-3.29;70.14
77574;BME280;66710;48.868;9.080;2023-02-28T02:00:45;98713.59;;;-3.29;70.45
77574;BME280;66710;48.868;9.080;2023-02-28T02:03:14;98717.75;;;-3.35;70.28
77574;BME280;66710;48.868;9.080;2023-02-28T02:05:44;98703.41;;;-3.34;70.34
77574;BME280;66710;48.868;9.080;2023-02-28T02:08:16;98708.91;;;-3.35;70.17
77574;BME280;66710;48.868;9.080;2023-02-28T02:10:45;98697.94;;;-3.40;70.42
77574;BME280;66710;48.868;9.080;2023-02-28T02:21:55;98699.75;;;-3.57;71.13
77574;BME280;66710;48.868;9.080;2023-02-28T02:24:45;98690.94;;;-3.58;70.81
77574;BME280;66710;48.868;9.080;2023-02-28T02:27:28;98682.44;;;-3.62;71.46
77574;BME280;66710;48.868;9.080;2023-02-28T02:30:20;98682.59;;;-3.63;71.27
77574;BME280;66710;48.868;9.080;2023-02-28T02:36:13;98679.25;;;-3.73;71.44
77574;BME280;66710;48.868;9.080;2023-02-28T02:39:02;98683.25;;;-3.69;71.80
77574;BME280;66710;48.868;9.080;2023-02-28T02:42:00;98679.59;;;-3.68;72.10
77574;BME280;66710;48.868;9.080;2023-02-28T02:45:07;98671.78;;;-3.70;72.60
77574;BME280;66710;48.868;9.080;2023-02-28T02:47:31;98675.25;;;-3.69;72.47
77574;BME280;66710;48.868;9.080;2023-02-28T02:49:59;98685.28;;;-3.63;72.04
77574;BME280;66710;48.868;9.080;2023-02-28T02:52:39;98680.09;;;-3.65;72.46
77574;BME280;66710;48.868;9.080;2023-02-28T02:55:06;98685.94;;;-3.61;72.45
77574;BME280;66710;48.868;9.080;2023-02-28T02:57:44;98684.75;;;-3.58;72.97
77574;BME280;66710;48.868;9.080;2023-02-28T03:00:12;98676.59;;;-3.57;72.67
77574;BME280;66710;48.868;9.080;2023-02-28T03:02:40;98677.47;;;-3.56;72.94
77574;BME280;66710;48.868;9.080;2023-02-28T03:05:09;98674.44;;;-3.53;73.35
77574;BME280;66710;48.868;9.080;2023-02-28T03:07:39;98677.28;;;-3.47;73.12
77574;BME280;66710;48.868;9.080;2023-02-28T03:10:26;98682.28;;;-3.44;72.27
77574;BME280;66710;48.868;9.080;2023-02-28T03:13:00;98691.75;;;-3.41;73.38
77574;BME280;66710;48.868;9.080;2023-02-28T03:15:40;98686.28;;;-3.39;73.78
77574;BME280;66710;48.868;9.080;2023-02-28T03:18:24;98685.28;;;-3.38;73.14
77574;BME280;66710;48.868;9.080;2023-02-28T03:23:33;98685.63;;;-3.33;73.50
77574;BME280;66710;48.868;9.080;2023-02-28T03:26:20;98689.28;;;-3.34;73.43
77574;BME280;66710;48.868;9.080;2023-02-28T03:29:02;98690.09;;;-3.34;73.72
77574;BME280;66710;48.868;9.080;2023-02-28T03:34:22;98687.28;;;-3.32;74.12
77574;BME280;66710;48.868;9.080;2023-02-28T03:36:52;98683.47;;;-3.30;74.03
77574;BME280;66710;48.868;9.080;2023-02-28T03:42:43;98683.78;;;-3.25;73.58
77574;BME280;66710;48.868;9.080;2023-02-28T03:45:17;98681.28;;;-3.18;73.68
77574;BME280;66710;48.868;9.080;2023-02-28T03:47:52;98684.28;;;-3.21;73.33
77574;BME280;66710;48.868;9.080;2023-02-28T03:50:24;98684.09;;;-3.19;73.77
77574;BME280;66710;48.868;9.080;2023-02-28T03:53:00;98683.94;;;-3.18;73.70
77574;BME280;66710;48.868;9.080;2023-02-28T03:55:34;98679.63;;;-3.19;73.74
77574;BME280;66710;48.868;9.080;2023-02-28T03:58:11;98679.31;;;-3.16;73.67
77574;BME280;66710;48.868;9.080;2023-02-28T04:00:43;98679.09;;;-3.14;73.56
77574;BME280;66710;48.868;9.080;2023-02-28T04:03:10;98675.44;;;-3.13;73.24
77574;BME280;66710;48.868;9.080;2023-02-28T04:05:48;98671.97;;;-3.14;73.80
77574;BME280;66710;48.868;9.080;2023-02-28T04:08:14;98683.13;;;-3.10;73.92
77574;BME280;66710;48.868;9.080;2023-02-28T04:10:40;98688.09;;;-3.07;73.29
77574;BME280;66710;48.868;9.080;2023-02-28T04:13:08;98691.59;;;-3.07;73.26
77574;BME280;66710;48.868;9.080;2023-02-28T04:15:33;98689.75;;;-3.06;73.73
77574;BME280;66710;48.868;9.080;2023-02-28T04:17:59;98693.59;;;-3.00;73.18
77574;BME280;66710;48.868;9.080;2023-02-28T04:20:24;98697.75;;;-2.98;73.24
77574;BME280;66710;48.868;9.080;2023-02-28T04:22:49;98682.91;;;-2.92;73.21
77574;BME280;66710;48.868;9.080;2023-02-28T04:25:14;98683.09;;;-2.86;72.65
77574;BME280;66710;48.868;9.080;2023-02-28T04:27:40;98684.41;;;-2.81;72.07
77574;BME280;66710;48.868;9.080;2023-02-28T04:30:06;98691.03;;;-2.77;72.12
77574;BME280;66710;48.868;9.080;2023-02-28T04:32:31;98696.69;;;-2.72;72.36
77574;BME280;66710;48.868;9.080;2023-02-28T04:34:56;98693.69;;;-2.69;71.82
77574;BME280;66710;48.868;9.080;2023-02-28T04:37:22;98683.03;;;-2.69;72.05
77574;BME280;66710;48.868;9.080;2023-02-28T04:39:52;98679.88;;;-2.64;71.94
77574;BME280;66710;48.868;9.080;2023-02-28T04:42:18;98670.84;;;-2.63;71.78
77574;BME280;66710;48.868;9.080;2023-02-28T04:44:43;98670.69;;;-2.62;71.72
77574;BME280;66710;48.868;9.080;2023-02-28T04:47:08;98675.34;;;-2.56;71.31
77574;BME280;66710;48.868;9.080;2023-02-28T04:49:34;98670.19;;;-2.57;71.11
77574;BME280;66710;48.868;9.080;2023-02-28T04:51:59;98671.81;;;-2.56;71.48
77574;BME280;66710;48.868;9.080;2023-02-28T04:54:24;98673.34;;;-2.54;71.50
77574;BME280;66710;48.868;9.080;2023-02-28T04:56:49;98676.16;;;-2.55;71.16
77574;BME280;66710;48.868;9.080;2023-02-28T04:59:15;98674.16;;;-2.53;71.35
77574;BME280;66710;48.868;9.080;2023-02-28T05:01:40;98681.81;;;-2.50;71.54
77574;BME280;66710;48.868;9.080;2023-02-28T05:04:05;98676.66;;;-2.52;71.69
77574;BME280;66710;48.868;9.080;2023-02-28T05:06:32;98684.66;;;-2.52;71.17
77574;BME280;66710;48.868;9.080;2023-02-28T05:08:58;98687.22;;;-2.19;72.47
77574;BME280;66710;48.868;9.080;2023-02-28T05:11:29;98686.09;;;-1.70;74.47
77574;BME280;66710;48.868;9.080;2023-02-28T05:13:58;98685.59;;;-1.65;71.30
77574;BME280;66710;48.868;9.080;2023-02-28T05:16:24;98686.84;;;-1.53;71.29
77574;BME280;66710;48.868;9.080;2023-02-28T05:18:49;98690.63;;;-1.70;71.86
77574;BME280;66710;48.868;9.080;2023-02-28T05:21:29;98677.31;;;-2.10;70.23
77574;BME280;66710;48.868;9.080;2023-02-28T05:23:59;98681.91;;;-2.27;70.43
77574;BME280;66710;48.868;9.080;2023-02-28T05:26:25;98688.41;;;-2.30;70.26
77574;BME280;66710;48.868;9.080;2023-02-28T05:28:51;98685.06;;;-2.32;70.45
77574;BME280;66710;48.868;9.080;2023-02-28T05:31:16;98683.44;;;-2.33;71.18
77574;BME280;66710;48.868;9.080;2023-02-28T05:33:42;98688.28;;;-2.36;71.22
77574;BME280;66710;48.868;9.080;2023-02-28T05:36:07;98691.94;;;-2.37;71.10
77574;BME280;66710;48.868;9.080;2023-02-28T05:38:33;98692.09;;;-2.39;71.29
77574;BME280;66710;48.868;9.080;2023-02-28T05:40:58;98678.59;;;-2.37;70.78
77574;BME280;66710;48.868;9.080;2023-02-28T05:43:24;98691.13;;;-2.38;71.26
77574;BME280;66710;48.868;9.080;2023-02-28T05:45:50;98691.28;;;-2.39;70.83
77574;BME280;66710;48.868;9.080;2023-02-28T05:48:15;98695.59;;;-2.38;70.91
77574;BME280;66710;48.868;9.080;2023-02-28T05:50:41;98686.59;;;-2.37;70.66
77574;BME280;66710;48.868;9.080;2023-02-28T05:53:08;98690.09;;;-2.37;70.58
77574;BME280;66710;48.868;9.080;2023-02-28T05:55:33;98683.94;;;-2.37;70.28
77574;BME280;66710;48.868;9.080;2023-02-28T05:57:58;98698.94;;;-2.36;70.70
77574;BME280;66710;48.868;9.080;2023-02-28T06:00:23;98699.78;;;-2.36;70.56
77574;BME280;66710;48.868;9.080;2023-02-28T06:02:49;98700.78;;;-2.37;71.04
77574;BME280;66710;48.868;9.080;2023-02-28T06:05:16;98697.94;;;-2.35;71.09
77574;BME280;66710;48.868;9.080;2023-02-28T06:07:42;98691.94;;;-2.37;71.41
77574;BME280;66710;48.868;9.080;2023-02-28T06:10:09;98700.59;;;-2.35;71.03
77574;BME280;66710;48.868;9.080;2023-02-28T06:12:35;98702.94;;;-2.32;70.23
77574;BME280;66710;48.868;9.080;2023-02-28T06:15:00;98704.78;;;-2.33;70.63
77574;BME280;66710;48.868;9.080;2023-02-28T06:17:25;98708.44;;;-2.34;70.74
77574;BME280;66710;48.868;9.080;2023-02-28T06:19:50;98705.59;;;-2.32;70.73
77574;BME280;66710;48.868;9.080;2023-02-28T06:22:16;98708.09;;;-2.31;70.14
77574;BME280;66710;48.868;9.080;2023-02-28T06:24:41;98710.13;;;-2.33;70.43
77574;BME280;66710;48.868;9.080;2023-02-28T06:27:06;98709.94;;;-2.31;70.66
77574;BME280;66710;48.868;9.080;2023-02-28T06:29:33;98713.25;;;-2.29;70.90
77574;BME280;66710;48.868;9.080;2023-02-28T06:31:58;98714.25;;;-2.30;70.33
77574;BME280;66710;48.868;9.080;2023-02-28T06:34:24;98718.59;;;-2.29;70.86
77574;BME280;66710;48.868;9.080;2023-02-28T06:36:50;98714.91;;;-2.28;70.76
77574;BME280;66710;48.868;9.080;2023-02-28T06:39:15;98716.59;;;-2.27;70.54
77574;BME280;66710;48.868;9.080;2023-02-28T06:41:41;98725.25;;;-2.25;70.36
77574;BME280;66710;48.868;9.080;2023-02-28T06:44:14;98723.41;;;-2.24;70.48
77574;BME280;66710;48.868;9.080;2023-02-28T06:46:43;98728.22;;;-2.20;70.45
77574;BME280;66710;48.868;9.080;2023-02-28T06:49:09;98731.06;;;-2.13;70.76
77574;BME280;66710;48.868;9.080;2023-02-28T06:51:39;98734.84;;;-2.07;69.91
77574;BME280;66710;48.868;9.080;2023-02-28T06:54:05;98736.03;;;-2.10;70.22
77574;BME280;66710;48.868;9.080;2023-02-28T06:56:30;98730.47;;;-1.92;70.50
77574;BME280;66710;48.868;9.080;2023-02-28T06:58:56;98732.50;;;-2.02;69.98
77574;BME280;66710;48.868;9.080;2023-02-28T07:01:22;98736.13;;;-1.95;71.22
77574;BME280;66710;48.868;9.080;2023-02-28T07:03:48;98735.00;;;-2.01;69.96
77574;BME280;66710;48.868;9.080;2023-02-28T07:06:20;98747.97;;;-1.98;69.73
77574;BME280;66710;48.868;9.080;2023-02-28T07:08:48;98739.50;;;-2.01;69.67
77574;BME280;66710;48.868;9.080;2023-02-28T07:11:13;98742.84;;;-1.99;69.83
77574;BME280;66710;48.868;9.080;2023-02-28T07:13:38;98742.34;;;-2.03;69.95
77574;BME280;66710;48.868;9.080;2023-02-28T07:16:06;98746.03;;;-2.04;70.16
77574;BME280;66710;48.868;9.080;2023-02-28T07:18:31;98751.84;;;-2.00;69.18
77574;BME280;66710;48.868;9.080;2023-02-28T07:20:57;98755.50;;;-2.01;70.11
77574;BME280;66710;48.868;9.080;2023-02-28T07:23:22;98754.03;;;-2.04;69.65
77574;BME280;66710;48.868;9.080;2023-02-28T07:25:49;98755.72;;;-2.03;69.50
77574;BME280;66710;48.868;9.080;2023-02-28T07:28:15;98747.38;;;-2.08;69.32
77574;BME280;66710;48.868;9.080;2023-02-28T07:30:40;98745.38;;;-2.06;69.40
77574;BME280;66710;48.868;9.080;2023-02-28T07:33:06;98748.84;;;-2.05;70.00
77574;BME280;66710;48.868;9.080;2023-02-28T07:35:31;98751.19;;;-2.02;69.09
77574;BME280;66710;48.868;9.080;2023-02-28T07:37:58;98753.03;;;-2.03;69.63
77574;BME280;66710;48.868;9.080;2023-02-28T07:40:23;98750.84;;;-1.99;69.94
77574;BME280;66710;48.868;9.080;2023-02-28T07:42:49;98751.13;;;-1.94;69.17
77574;BME280;66710;48.868;9.080;2023-02-28T07:45:15;98749.50;;;-1.95;69.47
77574;BME280;66710;48.868;9.080;2023-02-28T07:47:41;98753.69;;;-2.01;69.17
77574;BME280;66710;48.868;9.080;2023-02-28T07:50:10;98760.34;;;-1.97;69.37
77574;BME280;66710;48.868;9.080;2023-02-28T07:52:36;98757.31;;;-1.94;69.71
77574;BME280;66710;48.868;9.080;2023-02-28T07:55:02;98756.13;;;-1.91;69.02
77574;BME280;66710;48.868;9.080;2023-02-28T07:57:27;98757.97;;;-1.92;69.19
77574;BME280;66710;48.868;9.080;2023-02-28T07:59:53;98761.13;;;-1.88;69.27
77574;BME280;66710;48.868;9.080;2023-02-28T08:02:18;98755.78;;;-1.88;69.82
77574;BME280;66710;48.868;9.080;2023-02-28T08:04:44;98757.81;;;-1.90;69.27
77574;BME280;66710;48.868;9.080;2023-02-28T08:07:10;98759.44;;;-1.81;69.10
77574;BME280;66710;48.868;9.080;2023-02-28T08:09:38;98756.41;;;-1.78;69.04
77574;BME280;66710;48.868;9.080;2023-02-28T08:12:04;98757.41;;;-1.79;68.81
77574;BME280;66710;48.868;9.080;2023-02-28T08:14:29;98766.44;;;-1.80;68.83
77574;BME280;66710;48.868;9.080;2023-02-28T08:16:54;98763.28;;;-1.83;68.55
77574;BME280;66710;48.868;9.080;2023-02-28T08:19:19;98765.56;;;-1.72;68.49
77574;BME280;66710;48.868;9.080;2023-02-28T08:21:45;98763.53;;;-1.70;68.70
77574;BME280;66710;48.868;9.080;2023-02-28T08:24:10;98770.56;;;-1.69;68.13
77574;BME280;66710;48.868;9.080;2023-02-28T08:26:35;98767.03;;;-1.69;68.55
77574;BME280;66710;48.868;9.080;2023-02-28T08:29:00;98768.38;;;-1.65;68.54
77574;BME280;66710;48.868;9.080;2023-02-28T08:31:26;98770.47;;;-1.53;68.53
77574;BME280;66710;48.868;9.080;2023-02-28T08:33:51;98771.97;;;-1.50;68.13
77574;BME280;66710;48.868;9.080;2023-02-28T08:36:18;98776.81;;;-1.54;68.55
77574;BME280;66710;48.868;9.080;2023-02-28T08:38:44;98768.28;;;-1.49;67.86
77574;BME280;66710;48.868;9.080;2023-02-28T08:41:11;98774.41;;;-1.40;67.78
77574;BME280;66710;48.868;9.080;2023-02-28T08:43:37;98766.91;;;-1.45;67.59
77574;BME280;66710;48.868;9.080;2023-02-28T08:46:03;98779.13;;;-1.50;67.95
77574;BME280;66710;48.868;9.080;2023-02-28T08:48:30;98770.44;;;-1.44;67.31
77574;BME280;66710;48.868;9.080;2023-02-28T08:51:00;98770.78;;;-1.47;67.37
77574;BME280;66710;48.868;9.080;2023-02-28T08:53:26;98782.94;;;-1.45;67.13
77574;BME280;66710;48.868;9.080;2023-02-28T08:56:00;98779.09;;;-1.42;67.36
77574;BME280;66710;48.868;9.080;2023-02-28T08:58:25;98787.59;;;-1.39;67.54
77574;BME280;66710;48.868;9.080;2023-02-28T09:00:51;98787.06;;;-1.34;67.04
77574;BME280;66710;48.868;9.080;2023-02-28T09:03:17;98782.06;;;-1.37;67.21
77574;BME280;66710;48.868;9.080;2023-02-28T09:05:58;98794.81;;;-1.16;66.87
77574;BME280;66710;48.868;9.080;2023-02-28T09:08:25;98790.16;;;-0.99;67.38
77574;BME280;66710;48.868;9.080;2023-02-28T09:10:50;98789.97;;;-0.74;66.25
77574;BME280;66710;48.868;9.080;2023-02-28T09:13:16;98791.69;;;-0.82;65.81
77574;BME280;66710;48.868;9.080;2023-02-28T09:15:42;98787.97;;;-0.96;65.64
77574;BME280;66710;48.868;9.080;2023-02-28T09:18:07;98783.63;;;-0.97;65.17
77574;BME280;66710;48.868;9.080;2023-02-28T09:20:32;98785.88;;;-0.85;65.16
77574;BME280;66710;48.868;9.080;2023-02-28T09:22:58;98785.19;;;-0.79;65.08
77574;BME280;66710;48.868;9.080;2023-02-28T09:25:23;98787.94;;;-0.72;64.33
77574;BME280;66710;48.868;9.080;2023-02-28T09:27:48;98790.91;;;-0.67;64.66
77574;BME280;66710;48.868;9.080;2023-02-28T09:30:13;98788.91;;;-0.65;63.78
77574;BME280;66710;48.868;9.080;2023-02-28T09:32:39;98788.69;;;-0.64;63.54
77574;BME280;66710;48.868;9.080;2023-02-28T09:35:05;98792.53;;;-0.43;63.51
77574;BME280;66710;48.868;9.080;2023-02-28T09:37:30;98793.44;;;-0.51;63.93
77574;BME280;66710;48.868;9.080;2023-02-28T09:39:56;98794.50;;;-0.37;63.34
77574;BME280;66710;48.868;9.080;2023-02-28T09:42:28;98795.31;;;-0.36;63.29
77574;BME280;66710;48.868;9.080;2023-02-28T09:44:56;98796.97;;;-0.35;62.92
77574;BME280;66710;48.868;9.080;2023-02-28T09:47:36;98798.66;;;-0.20;62.62
77574;BME280;66710;48.868;9.080;2023-02-28T09:50:29;98798.84;;;-0.06;62.46
77574;BME280;66710;48.868;9.080;2023-02-28T09:52:58;98794.78;;;-0.17;61.97
77574;BME280;66710;48.868;9.080;2023-02-28T09:55:34;98797.63;;;-0.04;62.10
77574;BME280;66710;48.868;9.080;2023-02-28T09:58:02;98796.28;;;0.01;61.47
77574;BME280;66710;48.868;9.080;2023-02-28T10:00:36;98798.22;;;-0.08;61.64
77574;BME280;66710;48.868;9.080;2023-02-28T10:03:10;98803.66;;;-0.02;61.44
77574;BME280;66710;48.868;9.080;2023-02-28T10:08:28;98792.75;;;0.15;61.28
77574;BME280;66710;48.868;9.080;2023-02-28T10:11:01;98798.75;;;0.32;60.93
77574;BME280;66710;48.868;9.080;2023-02-28T10:16:13;98795.94;;;0.55;59.76
77574;BME280;66710;48.868;9.080;2023-02-28T10:18:54;98802.13;;;0.55;59.11
77574;BME280;66710;48.868;9.080;2023-02-28T10:22:08;98793.63;;;0.52;59.47
77574;BME280;66710;48.868;9.080;2023-02-28T10:24:21;98801.72;;;0.73;58.95
77574;BME280;66710;48.868;9.080;2023-02-28T10:26:48;98800.53;;;0.76;58.79
77574;BME280;66710;48.868;9.080;2023-02-28T10:29:17;98807.75;;;0.97;58.54
77574;BME280;66710;48.868;9.080;2023-02-28T10:31:43;98816.44;;;0.99;58.68
77574;BME280;66710;48.868;9.080;2023-02-28T10:34:11;98817.25;;;1.00;58.83
77574;BME280;66710;48.868;9.080;2023-02-28T10:36:38;98815.47;;;1.07;57.35
77574;BME280;66710;48.868;9.080;2023-02-28T10:39:36;98810.69;;;1.45;57.68
77574;BME280;66710;48.868;9.080;2023-02-28T10:42:03;98807.94;;;1.67;56.47
77574;BME280;66710;48.868;9.080;2023-02-28T10:44:29;98806.91;;;1.40;55.90
77574;BME280;66710;48.868;9.080;2023-02-28T10:46:55;98806.25;;;1.59;56.14
77574;BME280;66710;48.868;9.080;2023-02-28T10:49:26;98800.25;;;1.57;56.18
77574;BME280;66710;48.868;9.080;2023-02-28T10:51:57;98803.22;;;1.69;55.52
77574;BME280;66710;48.868;9.080;2023-02-28T10:54:32;98807.13;;;1.66;55.23
77574;BME280;66710;48.868;9.080;2023-02-28T10:57:20;98808.78;;;1.67;55.64
77574;BME280;66710;48.868;9.080;2023-02-28T10:59:46;98805.63;;;1.92;54.64
77574;BME280;66710;48.868;9.080;2023-02-28T11:02:35;98802.69;;;2.15;53.65
77574;BME280;66710;48.868;9.080;2023-02-28T11:05:02;98801.75;;;2.30;53.70
77574;BME280;66710;48.868;9.080;2023-02-28T11:07:51;98797.25;;;2.43;52.97
77574;BME280;66710;48.868;9.080;2023-02-28T11:10:20;98797.34;;;2.22;53.49
77574;BME280;66710;48.868;9.080;2023-02-28T11:12:46;98792.75;;;2.51;53.14
77574;BME280;66710;48.868;9.080;2023-02-28T11:15:25;98795.19;;;2.45;53.47
77574;BME280;66710;48.868;9.080;2023-02-28T11:17:57;98793.13;;;2.47;52.76
77574;BME280;66710;48.868;9.080;2023-02-28T11:20:26;98792.50;;;3.47;50.95
77574;BME280;66710;48.868;9.080;2023-02-28T11:22:53;98792.31;;;3.75;50.22
77574;BME280;66710;48.868;9.080;2023-02-28T11:25:38;98783.00;;;3.51;50.05
77574;BME280;66710;48.868;9.080;2023-02-28T11:28:06;98788.75;;;3.95;50.83
77574;BME280;66710;48.868;9.080;2023-02-28T11:30:35;98770.81;;;4.79;47.45
77574;BME280;66710;48.868;9.080;2023-02-28T11:33:28;98780.19;;;4.25;48.98
77574;BME280;66710;48.868;9.080;2023-02-28T11:35:58;98781.97;;;3.39;50.84
77574;BME280;66710;48.868;9.080;2023-02-28T11:38:24;98775.53;;;3.60;50.30
77574;BME280;66710;48.868;9.080;2023-02-28T11:46:41;98769.13;;;6.17;45.32
77574;BME280;66710;48.868;9.080;2023-02-28T11:49:26;98758.69;;;6.39;44.43
77574;BME280;66710;48.868;9.080;2023-02-28T11:57:19;98760.38;;;6.71;44.11
77574;BME280;66710;48.868;9.080;2023-02-28T12:10:26;98760.28;;;7.19;40.68
77574;BME280;66710;48.868;9.080;2023-02-28T12:13:12;98745.38;;;8.76;38.14
77574;BME280;66710;48.868;9.080;2023-02-28T12:26:40;98739.09;;;8.75;38.37
77574;BME280;66710;48.868;9.080;2023-02-28T12:29:26;98731.50;;;8.60;37.49
77574;BME280;66710;48.868;9.080;2023-02-28T12:32:08;98735.31;;;8.88;36.62
77574;BME280;66710;48.868;9.080;2023-02-28T12:34:47;98745.63;;;7.51;39.33
77574;BME280;66710;48.868;9.080;2023-02-28T12:37:22;98734.06;;;8.26;38.82
77574;BME280;66710;48.868;9.080;2023-02-28T12:39:55;98730.63;;;9.00;37.68
77574;BME280;66710;48.868;9.080;2023-02-28T12:42:28;98729.38;;;8.62;36.83
77574;BME280;66710;48.868;9.080;2023-02-28T12:45:12;98724.09;;;8.84;37.52
77574;BME280;66710;48.868;9.080;2023-02-28T12:47:40;98731.63;;;7.77;37.45
77574;BME280;66710;48.868;9.080;2023-02-28T12:50:10;98722.22;;;8.44;37.90
77574;BME280;66710;48.868;9.080;2023-02-28T12:52:56;98720.25;;;8.16;37.89
77574;BME280;66710;48.868;9.080;2023-02-28T12:55:53;98713.28;;;8.72;36.81
77574;BME280;66710;48.868;9.080;2023-02-28T12:58:30;98711.38;;;8.44;37.35
77574;BME280;66710;48.868;9.080;2023-02-28T13:09:32;98709.41;;;8.68;36.99
77574;BME280;66710;48.868;9.080;2023-02-28T13:11:58;98709.56;;;9.24;36.15
77574;BME280;66710;48.868;9.080;2023-02-28T13:17:03;98706.19;;;9.17;35.66
77574;BME280;66710;48.868;9.080;2023-02-28T13:19:37;98706.75;;;9.19;35.34
77574;BME280;66710;48.868;9.080;2023-02-28T13:22:04;98707.94;;;9.23;34.76
77574;BME280;66710;48.868;9.080;2023-02-28T13:24:53;98719.06;;;8.64;37.13
77574;BME280;66710;48.868;9.080;2023-02-28T13:27:37;98702.56;;;9.45;36.05
77574;BME280;66710;48.868;9.080;2023-02-28T13:44:05;98697.69;;;8.68;36.05
77574;BME280;66710;48.868;9.080;2023-02-28T13:49:23;98704.16;;;10.19;33.76
77574;BME280;66710;48.868;9.080;2023-02-28T13:52:12;98707.06;;;10.13;33.51
77574;BME280;66710;48.868;9.080;2023-02-28T13:58:18;98715.53;;;9.94;34.31
77574;BME280;66710;48.868;9.080;2023-02-28T14:01:00;98715.69;;;8.57;35.57
77574;BME280;66710;48.868;9.080;2023-02-28T14:03:36;98702.00;;;9.60;35.03
77574;BME280;66710;48.868;9.080;2023-02-28T14:06:30;98701.56;;;10.47;34.46
77574;BME280;66710;48.868;9.080;2023-02-28T14:09:15;98704.72;;;9.60;34.61
77574;BME280;66710;48.868;9.080;2023-02-28T14:11:44;98697.63;;;9.42;34.57
77574;BME280;66710;48.868;9.080;2023-02-28T14:17:05;98705.75;;;8.10;38.49
77574;BME280;66710;48.868;9.080;2023-02-28T14:19:33;98704.81;;;9.87;35.15
77574;BME280;66710;48.868;9.080;2023-02-28T14:22:33;98698.88;;;9.52;35.25
77574;BME280;66710;48.868;9.080;2023-02-28T14:25:15;98707.97;;;9.79;34.85
77574;BME280;66710;48.868;9.080;2023-02-28T14:33:26;98701.91;;;9.21;34.90
77574;BME280;66710;48.868;9.080;2023-02-28T14:36:11;98693.91;;;9.65;34.79
77574;BME280;66710;48.868;9.080;2023-02-28T14:39:05;98698.09;;;10.12;33.82
77574;BME280;66710;48.868;9.080;2023-02-28T14:41:34;98689.75;;;9.80;33.82
77574;BME280;66710;48.868;9.080;2023-02-28T14:44:24;98695.06;;;9.02;35.76
77574;BME280;66710;48.868;9.080;2023-02-28T14:46:52;98694.09;;;9.25;36.50
77574;BME280;66710;48.868;9.080;2023-02-28T14:49:26;98696.91;;;11.29;33.06
77574;BME280;66710;48.868;9.080;2023-02-28T14:52:17;98698.44;;;9.09;36.34
77574;BME280;66710;48.868;9.080;2023-02-28T14:54:44;98701.91;;;9.38;35.64
77574;BME280;66710;48.868;9.080;2023-02-28T14:57:31;98704.63;;;9.21;35.47